Terminal Aerodrome Forecast
Issued by NWS Charleston, WV

Home | Current Version | Previous Version | Text Only | Print | Product List | Glossary On
Versions: 1 2 3 4 5 6 7 8 9 10 11 12 13 14 15 16 17 18 19 20 21 22 23 24
000
FTUS41 KRLX 240244 AAA
TAFPKB
TAF AMD
KPKB 240244Z 2403/2424 13005KT 6SM SHRA BKN050
     FM240600 VRB03KT P6SM BKN030
     FM241200 10004KT P6SM OVC015
     FM241400 11005KT P6SM OVC020
     FM241600 12006KT P6SM SHRA OVC025=

USA.gov is the U.S. government's official web portal to all federal, state and local government web resources and services.